sensor_id;sensor_type;location;lat;lon;timestamp;pressure;altitude;pressure_sealevel;temperature;humidity
74975;BME280;68459;50.836;19.138;2023-11-21T00:00:22;97730.59;;;7.93;87.59
74975;BME280;68459;50.836;19.138;2023-11-21T00:03:46;97719.03;;;7.92;87.70
74975;BME280;68459;50.836;19.138;2023-11-21T00:07:09;97722.31;;;7.94;87.79
74975;BME280;68459;50.836;19.138;2023-11-21T00:10:33;97732.69;;;7.91;87.53
74975;BME280;68459;50.836;19.138;2023-11-21T00:13:56;97735.38;;;7.91;87.77
74975;BME280;68459;50.836;19.138;2023-11-21T00:17:18;97742.59;;;7.90;87.54
74975;BME280;68459;50.836;19.138;2023-11-21T00:20:41;97741.78;;;7.90;87.08
74975;BME280;68459;50.836;19.138;2023-11-21T00:24:03;97741.34;;;7.93;87.60
74975;BME280;68459;50.836;19.138;2023-11-21T00:27:27;97746.72;;;7.93;87.05
74975;BME280;68459;50.836;19.138;2023-11-21T00:30:50;97747.31;;;7.95;87.60
74975;BME280;68459;50.836;19.138;2023-11-21T00:34:12;97744.38;;;7.96;87.40
74975;BME280;68459;50.836;19.138;2023-11-21T00:37:34;97745.44;;;7.95;87.19
74975;BME280;68459;50.836;19.138;2023-11-21T00:40:59;97750.81;;;7.95;87.06
74975;BME280;68459;50.836;19.138;2023-11-21T00:44:23;97763.41;;;7.95;87.45
74975;BME280;68459;50.836;19.138;2023-11-21T00:47:29;97760.72;;;7.95;87.45
74975;BME280;68459;50.836;19.138;2023-11-21T00:50:33;97765.06;;;7.96;86.91
74975;BME280;68459;50.836;19.138;2023-11-21T00:53:37;97751.63;;;7.96;86.93
74975;BME280;68459;50.836;19.138;2023-11-21T00:56:41;97764.47;;;7.94;87.04
74975;BME280;68459;50.836;19.138;2023-11-21T00:59:46;97753.13;;;7.92;87.23
74975;BME280;68459;50.836;19.138;2023-11-21T01:02:50;97753.72;;;7.94;87.24
74975;BME280;68459;50.836;19.138;2023-11-21T01:05:55;97756.41;;;7.94;87.37
74975;BME280;68459;50.836;19.138;2023-11-21T01:08:59;97756.41;;;7.94;87.42
74975;BME280;68459;50.836;19.138;2023-11-21T01:12:04;97757.00;;;7.96;87.37
74975;BME280;68459;50.836;19.138;2023-11-21T01:15:10;97758.03;;;7.95;87.29
74975;BME280;68459;50.836;19.138;2023-11-21T01:18:14;97759.91;;;7.94;87.39
74975;BME280;68459;50.836;19.138;2023-11-21T01:21:19;97759.09;;;7.94;87.02
74975;BME280;68459;50.836;19.138;2023-11-21T01:24:22;97754.75;;;7.93;87.36
74975;BME280;68459;50.836;19.138;2023-11-21T01:27:26;97765.72;;;7.91;87.06
74975;BME280;68459;50.836;19.138;2023-11-21T01:30:32;97770.50;;;7.89;87.31
74975;BME280;68459;50.836;19.138;2023-11-21T01:33:35;97765.13;;;7.89;86.94
74975;BME280;68459;50.836;19.138;2023-11-21T01:36:39;97768.41;;;7.91;87.42
74975;BME280;68459;50.836;19.138;2023-11-21T01:39:43;97776.47;;;7.91;87.23
74975;BME280;68459;50.836;19.138;2023-11-21T01:42:50;97768.41;;;7.91;87.36
74975;BME280;68459;50.836;19.138;2023-11-21T01:45:55;97770.28;;;7.91;87.37
74975;BME280;68459;50.836;19.138;2023-11-21T01:49:00;97776.47;;;7.91;87.17
74975;BME280;68459;50.836;19.138;2023-11-21T01:52:04;97769.22;;;7.92;87.53
74975;BME280;68459;50.836;19.138;2023-11-21T01:55:10;97766.31;;;7.93;87.54
74975;BME280;68459;50.836;19.138;2023-11-21T01:58:22;97765.06;;;7.96;87.27
74975;BME280;68459;50.836;19.138;2023-11-21T02:01:27;97770.41;;;7.96;87.49
74975;BME280;68459;50.836;19.138;2023-11-21T02:04:32;97772.28;;;7.95;87.26
74975;BME280;68459;50.836;19.138;2023-11-21T02:07:38;97775.78;;;7.96;87.42
74975;BME280;68459;50.836;19.138;2023-11-21T02:10:42;97776.00;;;7.94;87.25
74975;BME280;68459;50.836;19.138;2023-11-21T02:13:45;97778.94;;;7.93;87.44
74975;BME280;68459;50.836;19.138;2023-11-21T02:16:53;97774.81;;;7.90;87.45
74975;BME280;68459;50.836;19.138;2023-11-21T02:19:59;97777.28;;;7.92;87.47
74975;BME280;68459;50.836;19.138;2023-11-21T02:23:04;97780.19;;;7.90;87.87
74975;BME280;68459;50.836;19.138;2023-11-21T02:26:08;97779.16;;;7.91;87.95
74975;BME280;68459;50.836;19.138;2023-11-21T02:29:12;97783.25;;;7.94;87.28
74975;BME280;68459;50.836;19.138;2023-11-21T02:32:16;97787.56;;;7.95;87.66
74975;BME280;68459;50.836;19.138;2023-11-21T02:35:21;97781.16;;;7.96;87.39
74975;BME280;68459;50.836;19.138;2023-11-21T02:38:26;97789.00;;;7.97;87.28
74975;BME280;68459;50.836;19.138;2023-11-21T02:41:30;97779.63;;;8.00;87.37
74975;BME280;68459;50.836;19.138;2023-11-21T02:44:34;97788.50;;;8.00;87.39
74975;BME280;68459;50.836;19.138;2023-11-21T02:47:37;97792.59;;;8.03;87.47
74975;BME280;68459;50.836;19.138;2023-11-21T02:50:41;97785.38;;;8.03;87.57
74975;BME280;68459;50.836;19.138;2023-11-21T02:53:47;97793.19;;;8.05;87.67
74975;BME280;68459;50.836;19.138;2023-11-21T02:56:51;97789.25;;;8.07;87.77
74975;BME280;68459;50.836;19.138;2023-11-21T02:59:54;97790.06;;;8.08;87.82
74975;BME280;68459;50.836;19.138;2023-11-21T03:02:58;97798.72;;;8.10;87.54
74975;BME280;68459;50.836;19.138;2023-11-21T03:06:03;97803.03;;;8.11;87.88
74975;BME280;68459;50.836;19.138;2023-11-21T03:09:08;97800.09;;;8.12;87.73
74975;BME280;68459;50.836;19.138;2023-11-21T03:12:11;97799.31;;;8.12;87.73
74975;BME280;68459;50.836;19.138;2023-11-21T03:15:15;97808.97;;;8.13;87.29
74975;BME280;68459;50.836;19.138;2023-11-21T03:18:19;97801.75;;;8.13;87.56
74975;BME280;68459;50.836;19.138;2023-11-21T03:21:24;97807.13;;;8.13;87.67
74975;BME280;68459;50.836;19.138;2023-11-21T03:24:29;97807.13;;;8.13;87.49
74975;BME280;68459;50.836;19.138;2023-11-21T03:27:34;97801.53;;;8.15;87.74
74975;BME280;68459;50.836;19.138;2023-11-21T03:30:38;97805.03;;;8.15;87.42
74975;BME280;68459;50.836;19.138;2023-11-21T03:33:41;97813.09;;;8.15;87.84
74975;BME280;68459;50.836;19.138;2023-11-21T03:36:45;97811.22;;;8.16;87.50
74975;BME280;68459;50.836;19.138;2023-11-21T03:39:50;97814.94;;;8.15;87.71
74975;BME280;68459;50.836;19.138;2023-11-21T03:42:54;97825.69;;;8.15;87.62
74975;BME280;68459;50.836;19.138;2023-11-21T03:45:58;97821.38;;;8.14;87.64
74975;BME280;68459;50.836;19.138;2023-11-21T03:49:02;97817.84;;;8.13;87.57
74975;BME280;68459;50.836;19.138;2023-11-21T03:52:06;97816.22;;;8.12;88.02
74975;BME280;68459;50.836;19.138;2023-11-21T03:55:12;97815.44;;;8.12;87.96
74975;BME280;68459;50.836;19.138;2023-11-21T03:58:18;97812.50;;;8.13;88.19
74975;BME280;68459;50.836;19.138;2023-11-21T04:01:22;97821.59;;;8.12;87.63
74975;BME280;68459;50.836;19.138;2023-11-21T04:04:26;97812.75;;;8.12;87.82
74975;BME280;68459;50.836;19.138;2023-11-21T04:07:30;97815.88;;;8.09;87.60
74975;BME280;68459;50.836;19.138;2023-11-21T04:10:36;97821.25;;;8.09;87.63
74975;BME280;68459;50.836;19.138;2023-11-21T04:13:41;97816.09;;;8.07;87.72
74975;BME280;68459;50.836;19.138;2023-11-21T04:16:45;97822.28;;;8.08;87.52
74975;BME280;68459;50.836;19.138;2023-11-21T04:19:49;97817.16;;;8.06;87.67
74975;BME280;68459;50.836;19.138;2023-11-21T04:22:53;97832.44;;;8.06;87.89
74975;BME280;68459;50.836;19.138;2023-11-21T04:25:58;97833.47;;;8.05;87.70
74975;BME280;68459;50.836;19.138;2023-11-21T04:29:04;97837.22;;;8.04;87.50
74975;BME280;68459;50.836;19.138;2023-11-21T04:32:08;97847.97;;;8.04;87.46
74975;BME280;68459;50.836;19.138;2023-11-21T04:35:12;97843.63;;;8.03;87.97
74975;BME280;68459;50.836;19.138;2023-11-21T04:38:15;97845.28;;;8.04;87.98
74975;BME280;68459;50.836;19.138;2023-11-21T04:41:20;97845.28;;;8.04;87.66
74975;BME280;68459;50.836;19.138;2023-11-21T04:44:24;97846.91;;;8.05;87.57
74975;BME280;68459;50.836;19.138;2023-11-21T04:47:28;97856.84;;;8.04;87.39
74975;BME280;68459;50.836;19.138;2023-11-21T04:50:31;97851.47;;;8.04;88.16
74975;BME280;68459;50.836;19.138;2023-11-21T04:53:35;97851.69;;;8.03;87.39
74975;BME280;68459;50.836;19.138;2023-11-21T04:56:40;97857.06;;;8.03;87.83
74975;BME280;68459;50.836;19.138;2023-11-21T04:59:44;97860.78;;;8.02;87.95
74975;BME280;68459;50.836;19.138;2023-11-21T05:02:48;97856.47;;;8.01;87.31
74975;BME280;68459;50.836;19.138;2023-11-21T05:05:52;97858.09;;;8.02;88.07
74975;BME280;68459;50.836;19.138;2023-11-21T05:08:55;97858.09;;;8.02;87.95
74975;BME280;68459;50.836;19.138;2023-11-21T05:12:02;97860.78;;;8.02;87.90
74975;BME280;68459;50.836;19.138;2023-11-21T05:15:08;97873.16;;;8.03;87.77
74975;BME280;68459;50.836;19.138;2023-11-21T05:18:13;97858.09;;;8.02;87.57
74975;BME280;68459;50.836;19.138;2023-11-21T05:21:16;97866.75;;;8.04;87.67
74975;BME280;68459;50.836;19.138;2023-11-21T05:24:23;97878.53;;;8.03;87.79
74975;BME280;68459;50.836;19.138;2023-11-21T05:27:28;97878.75;;;8.01;87.71
74975;BME280;68459;50.836;19.138;2023-11-21T05:30:31;97884.13;;;8.01;87.30
74975;BME280;68459;50.836;19.138;2023-11-21T05:33:35;97882.25;;;8.02;88.14
74975;BME280;68459;50.836;19.138;2023-11-21T05:36:39;97885.78;;;8.02;87.65
74975;BME280;68459;50.836;19.138;2023-11-21T05:39:43;97893.00;;;8.02;87.60
74975;BME280;68459;50.836;19.138;2023-11-21T05:42:48;97891.16;;;8.02;87.33
74975;BME280;68459;50.836;19.138;2023-11-21T05:45:53;97891.16;;;8.02;87.38
74975;BME280;68459;50.836;19.138;2023-11-21T05:48:57;97895.34;;;7.98;87.45
74975;BME280;68459;50.836;19.138;2023-11-21T05:52:00;97904.66;;;7.96;87.39
74975;BME280;68459;50.836;19.138;2023-11-21T05:55:05;97907.78;;;7.93;87.45
74975;BME280;68459;50.836;19.138;2023-11-21T05:58:11;97911.97;;;7.88;87.41
74975;BME280;68459;50.836;19.138;2023-11-21T06:01:16;97916.75;;;7.86;87.42
74975;BME280;68459;50.836;19.138;2023-11-21T06:04:19;97915.56;;;7.82;87.19
74975;BME280;68459;50.836;19.138;2023-11-21T06:07:26;97914.75;;;7.82;87.37
74975;BME280;68459;50.836;19.138;2023-11-21T06:10:33;97918.25;;;7.82;87.63
74975;BME280;68459;50.836;19.138;2023-11-21T06:13:41;97920.34;;;7.80;87.05
74975;BME280;68459;50.836;19.138;2023-11-21T06:16:45;97930.25;;;7.80;87.30
74975;BME280;68459;50.836;19.138;2023-11-21T06:19:49;97932.94;;;7.80;87.15
74975;BME280;68459;50.836;19.138;2023-11-21T06:22:55;97936.66;;;7.79;87.49
74975;BME280;68459;50.836;19.138;2023-11-21T06:25:58;97933.16;;;7.78;87.05
74975;BME280;68459;50.836;19.138;2023-11-21T06:29:04;97943.88;;;7.78;87.31
74975;BME280;68459;50.836;19.138;2023-11-21T06:32:09;97938.53;;;7.78;87.63
74975;BME280;68459;50.836;19.138;2023-11-21T06:35:13;97940.78;;;7.81;87.54
74975;BME280;68459;50.836;19.138;2023-11-21T06:38:18;97940.53;;;7.83;87.38
74975;BME280;68459;50.836;19.138;2023-11-21T06:41:22;97940.91;;;7.86;87.52
74975;BME280;68459;50.836;19.138;2023-11-21T06:44:27;97946.66;;;7.90;87.75
74975;BME280;68459;50.836;19.138;2023-11-21T06:47:31;97944.56;;;7.92;87.38
74975;BME280;68459;50.836;19.138;2023-11-21T06:50:35;97946.59;;;7.97;87.23
74975;BME280;68459;50.836;19.138;2023-11-21T06:53:38;97949.50;;;7.95;87.22
74975;BME280;68459;50.836;19.138;2023-11-21T06:56:43;97962.69;;;7.97;86.87
74975;BME280;68459;50.836;19.138;2023-11-21T06:59:48;97954.47;;;7.92;86.86
74975;BME280;68459;50.836;19.138;2023-11-21T07:02:52;97962.97;;;7.88;86.73
74975;BME280;68459;50.836;19.138;2023-11-21T07:05:56;97971.63;;;7.91;87.27
74975;BME280;68459;50.836;19.138;2023-11-21T07:09:00;97968.94;;;7.91;87.21
74975;BME280;68459;50.836;19.138;2023-11-21T07:12:06;97967.69;;;7.93;86.73
74975;BME280;68459;50.836;19.138;2023-11-21T07:15:11;97967.91;;;7.92;86.69
74975;BME280;68459;50.836;19.138;2023-11-21T07:18:15;97973.50;;;7.90;86.88
74975;BME280;68459;50.836;19.138;2023-11-21T07:21:20;97972.28;;;7.86;86.80
74975;BME280;68459;50.836;19.138;2023-11-21T07:24:24;97974.75;;;7.87;86.88
74975;BME280;68459;50.836;19.138;2023-11-21T07:27:28;97974.91;;;7.93;87.17
74975;BME280;68459;50.836;19.138;2023-11-21T07:30:34;97976.34;;;7.95;87.30
74975;BME280;68459;50.836;19.138;2023-11-21T07:33:37;97982.88;;;7.99;87.09
74975;BME280;68459;50.836;19.138;2023-11-21T07:36:41;97982.66;;;8.01;86.98
74975;BME280;68459;50.836;19.138;2023-11-21T07:39:45;97988.25;;;7.99;86.78
74975;BME280;68459;50.836;19.138;2023-11-21T07:42:49;97990.72;;;8.01;86.78
74975;BME280;68459;50.836;19.138;2023-11-21T07:45:54;97994.00;;;8.03;86.71
74975;BME280;68459;50.836;19.138;2023-11-21T07:48:58;97994.63;;;8.05;86.86
74975;BME280;68459;50.836;19.138;2023-11-21T07:52:03;97999.38;;;8.03;86.23
74975;BME280;68459;50.836;19.138;2023-11-21T07:55:07;97997.75;;;8.02;86.62
74975;BME280;68459;50.836;19.138;2023-11-21T07:58:11;97998.44;;;7.97;86.15
74975;BME280;68459;50.836;19.138;2023-11-21T08:01:16;97997.59;;;7.97;87.40
74975;BME280;68459;50.836;19.138;2023-11-21T08:04:20;97998.78;;;8.01;86.81
74975;BME280;68459;50.836;19.138;2023-11-21T08:07:24;98004.53;;;8.04;86.94
74975;BME280;68459;50.836;19.138;2023-11-21T08:10:28;98010.50;;;8.06;86.31
74975;BME280;68459;50.836;19.138;2023-11-21T08:13:32;98011.09;;;8.08;86.63
74975;BME280;68459;50.836;19.138;2023-11-21T08:16:38;98011.94;;;8.09;86.49
74975;BME280;68459;50.836;19.138;2023-11-21T08:19:41;98014.63;;;8.09;86.76
74975;BME280;68459;50.836;19.138;2023-11-21T08:22:45;98010.66;;;8.11;86.81
74975;BME280;68459;50.836;19.138;2023-11-21T08:25:51;98018.84;;;8.16;86.12
74975;BME280;68459;50.836;19.138;2023-11-21T08:28:56;98012.81;;;8.21;86.61
74975;BME280;68459;50.836;19.138;2023-11-21T08:32:02;98015.63;;;8.26;86.47
74975;BME280;68459;50.836;19.138;2023-11-21T08:35:08;98018.47;;;8.31;85.96
74975;BME280;68459;50.836;19.138;2023-11-21T08:38:12;98019.94;;;8.34;86.29
74975;BME280;68459;50.836;19.138;2023-11-21T08:41:16;98026.03;;;8.41;86.24
74975;BME280;68459;50.836;19.138;2023-11-21T08:44:23;98025.59;;;8.44;86.11
74975;BME280;68459;50.836;19.138;2023-11-21T08:47:28;98028.66;;;8.47;85.78
74975;BME280;68459;50.836;19.138;2023-11-21T08:50:32;98036.06;;;8.52;86.31
74975;BME280;68459;50.836;19.138;2023-11-21T08:53:36;98029.03;;;8.51;86.12
74975;BME280;68459;50.836;19.138;2023-11-21T08:56:40;98027.41;;;8.50;85.97
74975;BME280;68459;50.836;19.138;2023-11-21T08:59:44;98030.53;;;8.47;85.78
74975;BME280;68459;50.836;19.138;2023-11-21T09:02:49;98033.22;;;8.47;85.49
74975;BME280;68459;50.836;19.138;2023-11-21T09:05:52;98030.53;;;8.47;85.81
74975;BME280;68459;50.836;19.138;2023-11-21T09:08:56;98033.44;;;8.45;85.43
74975;BME280;68459;50.836;19.138;2023-11-21T09:12:00;98031.34;;;8.47;85.79
74975;BME280;68459;50.836;19.138;2023-11-21T09:15:04;98025.38;;;8.45;85.59
74975;BME280;68459;50.836;19.138;2023-11-21T09:18:11;98030.75;;;8.45;85.52
74975;BME280;68459;50.836;19.138;2023-11-21T09:21:15;98029.09;;;8.44;85.47
74975;BME280;68459;50.836;19.138;2023-11-21T09:24:19;98038.66;;;8.40;85.17
74975;BME280;68459;50.836;19.138;2023-11-21T09:27:22;98032.09;;;8.36;85.92
74975;BME280;68459;50.836;19.138;2023-11-21T09:30:27;98029.19;;;8.38;86.00
74975;BME280;68459;50.836;19.138;2023-11-21T09:33:34;98027.47;;;8.43;86.08
74975;BME280;68459;50.836;19.138;2023-11-21T09:36:40;98032.16;;;8.48;85.58
74975;BME280;68459;50.836;19.138;2023-11-21T09:39:44;98036.06;;;8.52;85.23
74975;BME280;68459;50.836;19.138;2023-11-21T09:42:54;98035.81;;;8.53;85.43
74975;BME280;68459;50.836;19.138;2023-11-21T09:46:01;98038.06;;;8.56;85.52
74975;BME280;68459;50.836;19.138;2023-11-21T09:49:14;98034.16;;;8.52;85.70
74975;BME280;68459;50.836;19.138;2023-11-21T09:52:25;98033.59;;;8.50;84.71
74975;BME280;68459;50.836;19.138;2023-11-21T09:55:30;98031.94;;;8.49;85.66
74975;BME280;68459;50.836;19.138;2023-11-21T09:58:38;98031.56;;;8.46;84.97
74975;BME280;68459;50.836;19.138;2023-11-21T10:01:42;98040.28;;;8.41;85.39
74975;BME280;68459;50.836;19.138;2023-11-21T10:04:48;98035.97;;;8.40;85.22
74975;BME280;68459;50.836;19.138;2023-11-21T10:07:53;98032.22;;;8.41;85.19
74975;BME280;68459;50.836;19.138;2023-11-21T10:11:00;98033.88;;;8.42;85.68
74975;BME280;68459;50.836;19.138;2023-11-21T10:14:05;98039.84;;;8.44;85.30
74975;BME280;68459;50.836;19.138;2023-11-21T10:17:10;98044.63;;;8.42;85.26
74975;BME280;68459;50.836;19.138;2023-11-21T10:20:19;98045.66;;;8.41;84.87
74975;BME280;68459;50.836;19.138;2023-11-21T10:23:23;98046.50;;;8.42;85.50
74975;BME280;68459;50.836;19.138;2023-11-21T10:26:28;98043.59;;;8.43;85.21
74975;BME280;68459;50.836;19.138;2023-11-21T10:29:42;98043.38;;;8.45;84.60
74975;BME280;68459;50.836;19.138;2023-11-21T10:32:45;98037.31;;;8.49;85.33
74975;BME280;68459;50.836;19.138;2023-11-21T10:35:51;98038.16;;;8.50;84.77
74975;BME280;68459;50.836;19.138;2023-11-21T10:38:57;98045.59;;;8.48;85.00
74975;BME280;68459;50.836;19.138;2023-11-21T10:42:00;98047.03;;;8.50;85.25
74975;BME280;68459;50.836;19.138;2023-11-21T10:45:05;98055.00;;;8.57;85.37
74975;BME280;68459;50.836;19.138;2023-11-21T10:48:14;98050.59;;;8.63;85.12
74975;BME280;68459;50.836;19.138;2023-11-21T10:51:20;98047.44;;;8.66;84.88
74975;BME280;68459;50.836;19.138;2023-11-21T10:54:26;98052.59;;;8.67;85.11
74975;BME280;68459;50.836;19.138;2023-11-21T10:57:30;98043.25;;;8.70;84.87
74975;BME280;68459;50.836;19.138;2023-11-21T11:00:34;98051.69;;;8.73;85.31
74975;BME280;68459;50.836;19.138;2023-11-21T11:03:41;98053.13;;;8.76;84.81
74975;BME280;68459;50.836;19.138;2023-11-21T11:06:51;98047.53;;;8.77;85.02
74975;BME280;68459;50.836;19.138;2023-11-21T11:09:58;98046.59;;;8.83;84.77
74975;BME280;68459;50.836;19.138;2023-11-21T11:13:03;98041.81;;;8.85;85.08
74975;BME280;68459;50.836;19.138;2023-11-21T11:16:10;98033.06;;;8.90;84.60
74975;BME280;68459;50.836;19.138;2023-11-21T11:19:19;98039.16;;;8.97;85.04
74975;BME280;68459;50.836;19.138;2023-11-21T11:22:33;98038.50;;;9.02;84.57
74975;BME280;68459;50.836;19.138;2023-11-21T11:26:05;98032.31;;;9.13;84.25
74975;BME280;68459;50.836;19.138;2023-11-21T11:29:23;98042.50;;;9.22;84.46
74975;BME280;68459;50.836;19.138;2023-11-21T11:32:43;98052.25;;;9.35;84.52
74975;BME280;68459;50.836;19.138;2023-11-21T11:36:04;98052.53;;;9.45;84.46
74975;BME280;68459;50.836;19.138;2023-11-21T11:39:30;98058.97;;;9.56;83.77
74975;BME280;68459;50.836;19.138;2023-11-21T11:42:38;98055.81;;;9.59;84.31
74975;BME280;68459;50.836;19.138;2023-11-21T11:45:43;98051.50;;;9.58;83.89
74975;BME280;68459;50.836;19.138;2023-11-21T11:49:02;98059.44;;;9.53;83.04
74975;BME280;68459;50.836;19.138;2023-11-21T11:52:34;98065.28;;;9.50;83.13
74975;BME280;68459;50.836;19.138;2023-11-21T11:55:41;98063.41;;;9.50;83.64
74975;BME280;68459;50.836;19.138;2023-11-21T11:58:44;98059.44;;;9.53;83.60
74975;BME280;68459;50.836;19.138;2023-11-21T12:01:49;98061.91;;;9.54;83.89
74975;BME280;68459;50.836;19.138;2023-11-21T12:04:55;98068.56;;;9.52;83.40
74975;BME280;68459;50.836;19.138;2023-11-21T12:08:01;98062.81;;;9.48;83.43
74975;BME280;68459;50.836;19.138;2023-11-21T12:11:07;98070.28;;;9.46;83.48
74975;BME280;68459;50.836;19.138;2023-11-21T12:14:14;98062.47;;;9.45;83.50
74975;BME280;68459;50.836;19.138;2023-11-21T12:17:18;98072.16;;;9.34;83.34
74975;BME280;68459;50.836;19.138;2023-11-21T12:20:24;98075.75;;;9.16;82.56
74975;BME280;68459;50.836;19.138;2023-11-21T12:23:28;98073.53;;;8.95;83.56
74975;BME280;68459;50.836;19.138;2023-11-21T12:26:34;98075.44;;;8.76;83.58
74975;BME280;68459;50.836;19.138;2023-11-21T12:29:40;98077.97;;;8.53;83.72
74975;BME280;68459;50.836;19.138;2023-11-21T12:32:44;98084.41;;;8.34;84.16
74975;BME280;68459;50.836;19.138;2023-11-21T12:35:52;98083.53;;;8.15;84.08
74975;BME280;68459;50.836;19.138;2023-11-21T12:38:56;98083.31;;;7.98;84.06
74975;BME280;68459;50.836;19.138;2023-11-21T12:42:02;98092.53;;;7.84;84.61
74975;BME280;68459;50.836;19.138;2023-11-21T12:45:18;98101.72;;;7.70;84.16
74975;BME280;68459;50.836;19.138;2023-11-21T12:48:23;98099.38;;;7.55;84.27
74975;BME280;68459;50.836;19.138;2023-11-21T12:51:28;98096.72;;;7.48;84.22
74975;BME280;68459;50.836;19.138;2023-11-21T12:54:33;98104.22;;;7.40;84.70
74975;BME280;68459;50.836;19.138;2023-11-21T12:57:42;98113.19;;;7.27;84.59
74975;BME280;68459;50.836;19.138;2023-11-21T13:00:48;98112.63;;;7.19;85.14
74975;BME280;68459;50.836;19.138;2023-11-21T13:03:57;98127.28;;;7.09;84.22
74975;BME280;68459;50.836;19.138;2023-11-21T13:07:05;98124.47;;;6.98;84.90
74975;BME280;68459;50.836;19.138;2023-11-21T13:10:16;98131.72;;;6.91;84.67
74975;BME280;68459;50.836;19.138;2023-11-21T13:13:21;98132.78;;;6.83;84.53
74975;BME280;68459;50.836;19.138;2023-11-21T13:16:26;98134.47;;;6.77;84.93
74975;BME280;68459;50.836;19.138;2023-11-21T13:19:30;98143.13;;;6.73;84.68
74975;BME280;68459;50.836;19.138;2023-11-21T13:22:34;98149.31;;;6.67;85.17
74975;BME280;68459;50.836;19.138;2023-11-21T13:25:38;98155.53;;;6.61;84.58
74975;BME280;68459;50.836;19.138;2023-11-21T13:28:45;98161.34;;;6.51;84.17
74975;BME280;68459;50.836;19.138;2023-11-21T13:31:49;98176.59;;;6.44;84.89
74975;BME280;68459;50.836;19.138;2023-11-21T13:34:55;98176.19;;;6.40;84.87
74975;BME280;68459;50.836;19.138;2023-11-21T13:38:05;98175.19;;;6.35;84.86
74975;BME280;68459;50.836;19.138;2023-11-21T13:41:11;98175.38;;;6.27;84.46
74975;BME280;68459;50.836;19.138;2023-11-21T13:44:17;98186.50;;;6.17;84.92
74975;BME280;68459;50.836;19.138;2023-11-21T13:47:29;98188.78;;;6.07;84.16
74975;BME280;68459;50.836;19.138;2023-11-21T13:50:33;98198.66;;;6.00;84.65
74975;BME280;68459;50.836;19.138;2023-11-21T13:53:38;98200.13;;;5.96;84.86
74975;BME280;68459;50.836;19.138;2023-11-21T13:56:43;98202.94;;;5.88;84.37
74975;BME280;68459;50.836;19.138;2023-11-21T13:59:52;98209.13;;;5.75;85.20
74975;BME280;68459;50.836;19.138;2023-11-21T14:02:56;98210.53;;;5.58;84.05
74975;BME280;68459;50.836;19.138;2023-11-21T14:06:02;98204.53;;;5.49;85.11
74975;BME280;68459;50.836;19.138;2023-11-21T14:09:15;98214.41;;;5.42;85.09
74975;BME280;68459;50.836;19.138;2023-11-21T14:12:24;98212.94;;;5.33;84.79
74975;BME280;68459;50.836;19.138;2023-11-21T14:15:29;98225.47;;;5.26;85.13
74975;BME280;68459;50.836;19.138;2023-11-21T14:18:35;98228.72;;;5.15;84.85
74975;BME280;68459;50.836;19.138;2023-11-21T14:21:46;98224.16;;;5.09;84.92
74975;BME280;68459;50.836;19.138;2023-11-21T14:24:51;98236.69;;;5.01;85.57
74975;BME280;68459;50.836;19.138;2023-11-21T14:27:54;98240.13;;;4.95;85.14
74975;BME280;68459;50.836;19.138;2023-11-21T14:30:59;98247.94;;;4.90;84.32
74975;BME280;68459;50.836;19.138;2023-11-21T14:34:04;98247.50;;;4.87;84.41
74975;BME280;68459;50.836;19.138;2023-11-21T14:37:09;98243.94;;;4.80;84.46
74975;BME280;68459;50.836;19.138;2023-11-21T14:40:16;98247.22;;;4.75;84.98
74975;BME280;68459;50.836;19.138;2023-11-21T14:43:23;98255.63;;;4.72;85.13
74975;BME280;68459;50.836;19.138;2023-11-21T14:46:29;98258.88;;;4.68;85.26
74975;BME280;68459;50.836;19.138;2023-11-21T14:49:34;98274.28;;;4.65;84.63
74975;BME280;68459;50.836;19.138;2023-11-21T14:52:52;98272.59;;;4.58;85.11
74975;BME280;68459;50.836;19.138;2023-11-21T14:56:01;98279.31;;;4.54;84.89
74975;BME280;68459;50.836;19.138;2023-11-21T14:59:06;98271.47;;;4.46;84.70
74975;BME280;68459;50.836;19.138;2023-11-21T15:02:16;98276.31;;;4.36;84.51
74975;BME280;68459;50.836;19.138;2023-11-21T15:05:23;98286.75;;;4.30;84.64
74975;BME280;68459;50.836;19.138;2023-11-21T15:08:29;98283.44;;;4.28;84.35
74975;BME280;68459;50.836;19.138;2023-11-21T15:11:34;98285.06;;;4.23;85.13
74975;BME280;68459;50.836;19.138;2023-11-21T15:14:40;98290.69;;;4.13;84.94
74975;BME280;68459;50.836;19.138;2023-11-21T15:17:46;98293.25;;;4.00;85.19
74975;BME280;68459;50.836;19.138;2023-11-21T15:20:50;98301.66;;;3.97;84.39
74975;BME280;68459;50.836;19.138;2023-11-21T15:23:54;98318.66;;;3.96;85.05
74975;BME280;68459;50.836;19.138;2023-11-21T15:26:58;98316.56;;;3.91;84.68
74975;BME280;68459;50.836;19.138;2023-11-21T15:30:01;98322.66;;;3.85;84.66
74975;BME280;68459;50.836;19.138;2023-11-21T15:33:08;98326.91;;;3.80;84.55
74975;BME280;68459;50.836;19.138;2023-11-21T15:36:11;98329.69;;;3.72;84.41
74975;BME280;68459;50.836;19.138;2023-11-21T15:39:16;98329.59;;;3.65;84.70
74975;BME280;68459;50.836;19.138;2023-11-21T15:42:20;98332.22;;;3.58;85.00
74975;BME280;68459;50.836;19.138;2023-11-21T15:45:24;98341.97;;;3.51;84.67
74975;BME280;68459;50.836;19.138;2023-11-21T15:48:29;98350.72;;;3.45;84.41
74975;BME280;68459;50.836;19.138;2023-11-21T15:51:33;98362.09;;;3.39;84.29
74975;BME280;68459;50.836;19.138;2023-11-21T15:54:38;98365.50;;;3.33;84.62
74975;BME280;68459;50.836;19.138;2023-11-21T15:57:42;98370.41;;;3.30;85.02
74975;BME280;68459;50.836;19.138;2023-11-21T16:00:46;98375.25;;;3.26;84.11
74975;BME280;68459;50.836;19.138;2023-11-21T16:03:52;98377.44;;;3.22;84.69
74975;BME280;68459;50.836;19.138;2023-11-21T16:06:56;98378.03;;;3.18;84.39
74975;BME280;68459;50.836;19.138;2023-11-21T16:10:02;98387.38;;;3.14;84.34
74975;BME280;68459;50.836;19.138;2023-11-21T16:13:06;98391.25;;;3.11;84.32
74975;BME280;68459;50.836;19.138;2023-11-21T16:16:11;98390.59;;;3.09;84.86
74975;BME280;68459;50.836;19.138;2023-11-21T16:19:16;98399.16;;;3.05;84.62
74975;BME280;68459;50.836;19.138;2023-11-21T16:22:20;98404.84;;;3.02;85.20
74975;BME280;68459;50.836;19.138;2023-11-21T16:25:23;98408.03;;;2.97;84.46